Time;durP1;ratioP1;P1;durP2;ratioP2;P2;SDS_P1;SDS_P2;PMS_P1;PMS_P2;Temp;Humidity;BMP_temperature;BMP_pressure;BME280_temperature;BME280_humidity;BME280_pressure;Samples;Min_cycle;Max_cycle;Signal;HPM_P1;HPM_P2
2024/03/04 00:00:11;;;;;;;25.17;15.27;;;7.00;99.90;;;;;;5064623;28;20548;-68
2024/03/04 00:02:40;;;;;;;28.00;15.23;;;7.10;99.90;;;;;;5062867;28;20517;-66
2024/03/04 00:05:09;;;;;;;25.73;15.50;;;7.20;99.90;;;;;;5065088;28;20463;-67
2024/03/04 00:07:37;;;;;;;27.33;14.47;;;7.30;99.90;;;;;;5065666;28;20558;-67
2024/03/04 00:10:07;;;;;;;30.83;16.60;;;7.40;99.90;;;;;;5063257;28;20476;-67
2024/03/04 00:12:37;;;;;;;26.90;14.90;;;7.40;99.90;;;;;;5064643;28;20898;-67
2024/03/04 00:15:06;;;;;;;28.30;16.57;;;7.40;99.90;;;;;;5063668;28;20459;-67
2024/03/04 00:17:35;;;;;;;28.60;16.77;;;7.40;99.90;;;;;;5065705;28;20517;-67
2024/03/04 00:20:06;;;;;;;27.57;15.70;;;7.50;99.90;;;;;;5062160;28;20465;-67
2024/03/04 00:22:34;;;;;;;25.20;15.27;;;7.40;99.90;;;;;;5066067;28;20529;-67
2024/03/04 00:25:02;;;;;;;26.23;14.47;;;7.50;99.90;;;;;;5063924;28;20475;-67
2024/03/04 00:27:30;;;;;;;27.70;15.40;;;7.40;99.90;;;;;;5066441;28;21238;-67
2024/03/04 00:29:59;;;;;;;29.37;16.00;;;7.40;99.90;;;;;;5064717;28;20941;-67
2024/03/04 00:32:27;;;;;;;22.77;14.07;;;7.40;99.90;;;;;;5064726;28;21090;-68
2024/03/04 00:34:55;;;;;;;27.83;15.90;;;7.50;99.90;;;;;;5062268;28;20939;-67
2024/03/04 00:37:24;;;;;;;25.00;15.07;;;7.50;99.90;;;;;;5055206;28;20518;-68
2024/03/04 00:39:52;;;;;;;23.93;14.60;;;7.40;99.90;;;;;;5064619;28;20468;-69
2024/03/04 00:42:22;;;;;;;24.90;15.50;;;7.30;99.90;;;;;;5060288;28;20480;-68
2024/03/04 00:44:51;;;;;;;27.10;15.87;;;7.40;99.90;;;;;;5064631;28;20553;-68
2024/03/04 00:47:20;;;;;;;26.07;14.70;;;7.40;99.90;;;;;;5062988;28;21009;-68
2024/03/04 00:49:48;;;;;;;23.97;14.50;;;7.40;99.90;;;;;;5067756;28;20456;-68
2024/03/04 00:52:17;;;;;;;23.10;14.40;;;7.40;99.90;;;;;;5059024;28;20463;-68
2024/03/04 00:54:45;;;;;;;26.90;14.70;;;7.20;99.90;;;;;;5061548;28;20579;-68
2024/03/04 00:57:13;;;;;;;26.80;16.60;;;7.10;99.90;;;;;;5061400;28;20449;-68
2024/03/04 00:59:41;;;;;;;22.47;13.43;;;7.10;99.90;;;;;;5064338;28;20442;-69
2024/03/04 01:02:10;;;;;;;25.47;16.00;;;6.90;99.90;;;;;;5068644;28;20473;-69
2024/03/04 01:04:39;;;;;;;25.27;13.97;;;6.80;99.90;;;;;;5068682;28;21115;-68
2024/03/04 01:07:08;;;;;;;22.73;14.30;;;6.70;99.90;;;;;;5056267;28;20448;-68
2024/03/04 01:09:36;;;;;;;23.23;14.60;;;6.80;99.90;;;;;;5063398;28;20522;-69
2024/03/04 01:12:04;;;;;;;24.23;15.00;;;6.70;99.90;;;;;;5065220;28;20464;-68
2024/03/04 01:14:32;;;;;;;25.77;15.20;;;6.70;99.90;;;;;;5067153;28;20504;-69
2024/03/04 01:17:00;;;;;;;27.57;15.50;;;6.70;99.90;;;;;;5061068;28;20462;-69
2024/03/04 01:19:28;;;;;;;25.20;14.30;;;6.50;99.90;;;;;;5061643;28;20439;-69
2024/03/04 01:21:58;;;;;;;25.87;15.43;;;6.50;99.90;;;;;;5061353;28;20508;-68
2024/03/04 01:24:27;;;;;;;28.00;15.10;;;6.50;99.90;;;;;;5066805;28;20466;-68
2024/03/04 01:26:56;;;;;;;24.73;14.83;;;6.50;99.90;;;;;;5066632;28;20488;-69
2024/03/04 01:29:26;;;;;;;23.83;15.07;;;6.50;99.90;;;;;;5067328;28;20555;-68
2024/03/04 01:31:54;;;;;;;25.43;14.57;;;6.60;99.90;;;;;;5064951;28;20540;-69
2024/03/04 01:34:23;;;;;;;22.17;13.40;;;6.70;99.90;;;;;;5059490;28;21126;-69
2024/03/04 01:36:51;;;;;;;23.27;13.60;;;6.80;99.90;;;;;;5056207;28;20476;-68
2024/03/04 01:39:21;;;;;;;22.50;13.60;;;6.80;99.90;;;;;;5065968;28;20549;-69
2024/03/04 01:41:49;;;;;;;20.63;12.83;;;6.90;99.90;;;;;;5067041;28;20502;-69
2024/03/04 01:44:16;;;;;;;23.73;13.90;;;6.90;99.90;;;;;;5053075;28;20483;-68
2024/03/04 01:46:45;;;;;;;23.10;12.83;;;6.90;99.90;;;;;;5048483;28;20510;-68
2024/03/04 01:49:14;;;;;;;23.50;13.50;;;7.00;99.90;;;;;;5066453;28;20470;-68
2024/03/04 01:51:42;;;;;;;22.63;13.80;;;7.00;99.90;;;;;;5065488;28;20450;-68
2024/03/04 01:54:10;;;;;;;22.57;13.40;;;7.00;99.90;;;;;;5068086;28;20467;-68
2024/03/04 01:56:40;;;;;;;23.10;13.70;;;7.00;99.90;;;;;;5062354;28;20481;-68
2024/03/04 01:59:08;;;;;;;24.23;13.27;;;7.00;99.90;;;;;;5064174;28;20502;-68
2024/03/04 02:01:36;;;;;;;25.07;13.53;;;7.10;99.90;;;;;;5061610;28;20840;-68
2024/03/04 02:04:05;;;;;;;24.97;13.93;;;7.10;99.90;;;;;;5067804;28;20529;-68
2024/03/04 02:06:33;;;;;;;24.57;14.17;;;7.10;99.90;;;;;;5066954;28;21213;-69
2024/03/04 02:09:00;;;;;;;21.30;12.70;;;7.10;99.90;;;;;;5056939;28;20466;-68
2024/03/04 02:11:29;;;;;;;22.20;12.30;;;7.00;99.90;;;;;;5049665;28;21018;-68
2024/03/04 02:13:59;;;;;;;24.40;14.20;;;6.90;99.90;;;;;;5067141;28;20466;-68
2024/03/04 02:16:27;;;;;;;20.53;12.37;;;6.80;99.90;;;;;;5065369;28;20550;-68
2024/03/04 02:18:55;;;;;;;18.70;11.93;;;6.60;99.90;;;;;;5063785;28;20566;-69
2024/03/04 02:21:27;;;;;;;22.43;12.57;;;6.50;99.90;;;;;;5065761;28;20482;-68
2024/03/04 02:23:56;;;;;;;21.43;12.67;;;6.50;99.90;;;;;;5064711;28;20572;-70
2024/03/04 02:26:25;;;;;;;19.60;12.17;;;6.40;99.90;;;;;;5064784;28;20470;-69
2024/03/04 02:28:53;;;;;;;19.80;11.30;;;6.30;99.90;;;;;;5066323;28;20533;-70
2024/03/04 02:31:21;;;;;;;18.93;11.87;;;6.20;99.90;;;;;;5062163;28;20535;-71
2024/03/04 02:33:49;;;;;;;20.60;12.40;;;6.20;99.90;;;;;;5063302;28;20455;-70
2024/03/04 02:36:17;;;;;;;20.07;13.13;;;6.20;99.90;;;;;;5058122;28;20566;-71
2024/03/04 02:38:45;;;;;;;23.57;14.47;;;6.50;99.90;;;;;;5060720;28;20467;-70
2024/03/04 02:41:15;;;;;;;22.37;13.37;;;6.60;99.90;;;;;;5058870;28;20524;-70
2024/03/04 02:43:46;;;;;;;25.80;12.73;;;6.60;99.90;;;;;;5065526;28;20483;-70
2024/03/04 02:46:16;;;;;;;24.63;13.03;;;6.60;99.90;;;;;;5058547;28;20466;-70
2024/03/04 02:48:44;;;;;;;24.20;14.50;;;6.60;99.90;;;;;;5064457;28;20832;-70
2024/03/04 02:51:12;;;;;;;24.40;13.03;;;6.70;99.90;;;;;;5060277;28;20479;-71
2024/03/04 02:53:40;;;;;;;21.27;12.27;;;6.70;99.90;;;;;;5066628;28;20977;-70
2024/03/04 02:56:08;;;;;;;23.53;12.57;;;6.70;99.90;;;;;;5060416;28;21034;-70
2024/03/04 02:58:37;;;;;;;22.73;13.43;;;6.90;99.90;;;;;;5063624;28;20839;-70
2024/03/04 03:01:05;;;;;;;24.63;13.90;;;7.00;99.90;;;;;;5066010;28;20899;-70
2024/03/04 03:03:33;;;;;;;20.97;12.40;;;7.10;99.90;;;;;;5059867;28;20925;-70
2024/03/04 03:06:01;;;;;;;22.23;13.37;;;7.10;99.90;;;;;;5063230;28;20463;-70
2024/03/04 03:08:29;;;;;;;23.63;14.67;;;7.20;99.90;;;;;;5059564;28;20513;-70
2024/03/04 03:10:57;;;;;;;22.27;13.37;;;7.30;99.90;;;;;;5064941;28;20447;-70
2024/03/04 03:13:25;;;;;;;22.57;12.50;;;7.40;99.90;;;;;;5062465;28;20436;-70
2024/03/04 03:15:54;;;;;;;22.87;13.30;;;7.30;99.90;;;;;;5056367;28;20952;-70
2024/03/04 03:18:22;;;;;;;20.37;12.57;;;7.30;99.90;;;;;;5063097;28;20464;-70
2024/03/04 03:20:51;;;;;;;18.23;11.50;;;7.30;99.90;;;;;;5061035;28;20497;-70
2024/03/04 03:23:19;;;;;;;20.50;12.27;;;7.20;99.90;;;;;;5063307;28;20479;-70
2024/03/04 03:25:47;;;;;;;23.37;12.97;;;7.30;99.90;;;;;;5064800;28;20545;-70
2024/03/04 03:28:15;;;;;;;23.10;13.10;;;7.40;99.90;;;;;;5051474;28;20547;-71
2024/03/04 03:30:43;;;;;;;25.83;14.23;;;7.40;99.90;;;;;;5064134;28;20463;-70
2024/03/04 03:33:13;;;;;;;20.30;13.10;;;7.50;99.90;;;;;;5062011;28;20469;-69
2024/03/04 03:35:41;;;;;;;23.40;13.10;;;7.60;99.90;;;;;;5065801;28;21194;-71
2024/03/04 03:38:08;;;;;;;21.47;12.73;;;7.70;99.90;;;;;;5055331;28;20493;-70
2024/03/04 03:40:37;;;;;;;25.67;15.10;;;7.80;99.90;;;;;;5053581;28;20530;-70
2024/03/04 03:43:04;;;;;;;24.63;14.30;;;8.00;99.90;;;;;;5061814;28;20511;-70
2024/03/04 03:45:33;;;;;;;20.77;12.33;;;8.00;99.90;;;;;;5064867;28;20491;-70
2024/03/04 03:48:01;;;;;;;26.00;15.67;;;7.90;99.90;;;;;;5064214;28;20474;-70
2024/03/04 03:50:30;;;;;;;33.03;17.80;;;8.00;99.90;;;;;;5063252;28;20463;-69
2024/03/04 03:52:58;;;;;;;25.00;14.20;;;8.10;99.90;;;;;;5061955;28;20948;-70
2024/03/04 03:55:26;;;;;;;29.90;15.60;;;8.10;99.90;;;;;;5065384;28;20467;-70
2024/03/04 03:57:54;;;;;;;29.40;15.23;;;8.00;99.90;;;;;;5065600;28;20492;-70
2024/03/04 04:00:25;;;;;;;28.07;15.00;;;8.10;99.90;;;;;;5062471;28;20482;-70
2024/03/04 04:02:58;;;;;;;30.03;15.63;;;8.10;99.90;;;;;;5055564;28;21030;-69
2024/03/04 04:05:26;;;;;;;31.83;15.93;;;8.10;99.90;;;;;;5065288;28;20595;-70
2024/03/04 04:07:57;;;;;;;34.30;16.70;;;8.10;99.90;;;;;;5057438;28;20463;-70
2024/03/04 04:10:25;;;;;;;31.30;16.37;;;8.10;99.90;;;;;;5058498;28;20472;-70
2024/03/04 04:12:53;;;;;;;28.90;16.07;;;8.10;99.90;;;;;;5060091;28;20507;-70
2024/03/04 04:15:21;;;;;;;32.77;16.17;;;8.20;99.90;;;;;;5061002;28;20455;-69
2024/03/04 04:17:51;;;;;;;30.50;16.57;;;8.20;99.90;;;;;;5065954;28;21127;-70
2024/03/04 04:20:19;;;;;;;31.30;17.60;;;8.20;99.90;;;;;;5062863;28;21036;-70
2024/03/04 04:22:47;;;;;;;35.80;19.77;;;8.20;99.90;;;;;;5061980;28;20442;-70
2024/03/04 04:25:17;;;;;;;30.43;17.40;;;8.20;99.90;;;;;;5067617;28;20486;-70
2024/03/04 04:27:46;;;;;;;31.37;16.50;;;8.20;99.90;;;;;;5068188;28;21022;-70
2024/03/04 04:30:14;;;;;;;33.00;17.63;;;8.20;99.90;;;;;;5064463;28;20532;-70
2024/03/04 04:32:42;;;;;;;32.10;18.27;;;8.20;99.90;;;;;;5068149;28;20454;-70
2024/03/04 04:35:10;;;;;;;33.27;17.17;;;8.30;99.90;;;;;;5060542;28;20467;-70
2024/03/04 04:37:38;;;;;;;30.33;16.83;;;8.30;99.90;;;;;;5068996;28;20459;-70
2024/03/04 04:40:08;;;;;;;34.80;18.40;;;8.30;99.90;;;;;;5069140;28;20483;-70
2024/03/04 04:42:39;;;;;;;37.37;18.70;;;8.30;99.90;;;;;;5069132;28;20450;-71
2024/03/04 04:45:08;;;;;;;34.53;19.90;;;8.30;99.90;;;;;;5065702;28;20945;-70
2024/03/04 04:47:36;;;;;;;35.07;18.10;;;8.30;99.90;;;;;;5061425;28;20635;-71
2024/03/04 04:50:05;;;;;;;34.83;19.13;;;8.30;99.90;;;;;;5065547;28;20527;-70
2024/03/04 04:52:33;;;;;;;39.73;20.23;;;8.30;99.90;;;;;;5066822;28;20439;-71
2024/03/04 04:55:01;;;;;;;34.80;19.57;;;8.30;99.90;;;;;;5059748;28;20443;-70
2024/03/04 04:57:29;;;;;;;34.87;19.37;;;8.40;99.90;;;;;;5058739;28;20455;-70
2024/03/04 04:59:59;;;;;;;36.53;20.67;;;8.40;99.90;;;;;;5065535;28;20459;-71
2024/03/04 05:02:28;;;;;;;36.00;18.83;;;8.30;99.90;;;;;;5063799;28;20474;-70
2024/03/04 05:04:56;;;;;;;36.67;19.73;;;8.30;99.90;;;;;;5065320;28;20522;-70
2024/03/04 05:07:26;;;;;;;36.30;19.83;;;8.40;99.90;;;;;;5063746;28;20553;-70
2024/03/04 05:09:55;;;;;;;39.70;19.97;;;8.40;99.90;;;;;;5060081;28;21029;-70
2024/03/04 05:12:23;;;;;;;40.17;21.30;;;8.40;99.90;;;;;;5061873;28;21013;-71
2024/03/04 05:14:51;;;;;;;39.37;21.77;;;8.30;99.90;;;;;;5056108;28;20539;-71
2024/03/04 05:17:21;;;;;;;33.53;21.13;;;8.30;99.90;;;;;;5063815;28;20908;-69
2024/03/04 05:19:49;;;;;;;38.50;20.67;;;8.30;99.90;;;;;;5064672;28;20470;-68
2024/03/04 05:22:17;;;;;;;39.30;21.43;;;8.30;99.90;;;;;;5062612;28;20475;-71
2024/03/04 05:24:46;;;;;;;39.77;21.27;;;8.40;99.90;;;;;;5066384;28;20478;-68
2024/03/04 05:27:14;;;;;;;39.17;22.00;;;8.40;99.90;;;;;;5068028;28;21047;-69
2024/03/04 05:29:42;;;;;;;43.23;22.30;;;8.40;99.90;;;;;;5067848;28;20467;-69
2024/03/04 05:32:10;;;;;;;41.07;22.30;;;8.40;99.90;;;;;;5065895;28;20470;-68
2024/03/04 05:34:42;;;;;;;37.20;20.77;;;8.40;99.90;;;;;;5065541;28;20435;-69
2024/03/04 05:37:11;;;;;;;37.90;20.97;;;8.40;99.90;;;;;;5066965;28;20472;-69
2024/03/04 05:39:39;;;;;;;43.20;21.90;;;8.40;99.90;;;;;;5061787;28;20968;-69
2024/03/04 05:42:08;;;;;;;40.27;21.63;;;8.40;99.90;;;;;;5064064;28;20460;-69
2024/03/04 05:44:36;;;;;;;42.67;23.67;;;8.40;99.90;;;;;;5067414;28;20492;-67
2024/03/04 05:47:04;;;;;;;43.43;21.97;;;8.40;99.90;;;;;;5061597;28;20480;-68
2024/03/04 05:49:33;;;;;;;44.70;23.03;;;8.40;99.90;;;;;;5061373;28;20573;-71
2024/03/04 05:52:03;;;;;;;48.87;26.73;;;8.40;99.90;;;;;;5065520;28;20471;-69
2024/03/04 05:54:32;;;;;;;42.57;23.60;;;8.30;99.90;;;;;;5059477;28;20483;-69
2024/03/04 05:57:00;;;;;;;41.27;21.10;;;8.30;99.90;;;;;;5067730;28;20868;-69
2024/03/04 05:59:28;;;;;;;43.90;22.80;;;8.40;99.90;;;;;;5065340;28;20471;-70
2024/03/04 06:01:55;;;;;;;45.10;22.23;;;8.30;99.90;;;;;;5061265;28;20474;-69
2024/03/04 06:04:24;;;;;;;48.83;23.70;;;8.40;99.90;;;;;;5061316;28;20463;-70
2024/03/04 06:06:52;;;;;;;45.40;21.33;;;8.30;99.90;;;;;;5061171;28;21174;-68
2024/03/04 06:09:21;;;;;;;45.50;21.70;;;8.40;99.90;;;;;;5067742;28;20462;-69
2024/03/04 06:11:49;;;;;;;41.87;21.90;;;8.40;99.90;;;;;;5066581;28;20986;-69
2024/03/04 06:14:18;;;;;;;39.80;22.53;;;8.40;99.90;;;;;;5065735;28;20443;-71
2024/03/04 06:16:46;;;;;;;41.40;23.23;;;8.40;99.90;;;;;;5064677;28;20474;-72
2024/03/04 06:19:15;;;;;;;44.23;23.23;;;8.40;99.90;;;;;;5064573;28;20503;-69
2024/03/04 06:21:43;;;;;;;43.83;22.83;;;8.40;99.90;;;;;;5064355;28;20471;-70
2024/03/04 06:24:14;;;;;;;57.37;26.37;;;8.40;99.90;;;;;;5068066;28;20479;-71
2024/03/04 06:26:44;;;;;;;52.67;25.00;;;8.40;99.90;;;;;;5055064;28;20514;-69
2024/03/04 06:29:11;;;;;;;43.70;21.97;;;8.40;99.90;;;;;;5066768;28;20510;-69
2024/03/04 06:31:39;;;;;;;45.93;23.47;;;8.40;99.90;;;;;;5067513;28;20890;-69
2024/03/04 06:34:07;;;;;;;45.47;23.50;;;8.40;99.90;;;;;;5067538;28;20454;-70
2024/03/04 06:36:50;;;;;;;40.37;22.17;;;8.40;99.90;;;;;;5058441;28;20451;-69
2024/03/04 06:39:20;;;;;;;48.33;23.13;;;8.40;99.90;;;;;;5047049;28;21264;-69
2024/03/04 06:41:49;;;;;;;47.23;24.43;;;8.40;99.90;;;;;;5047522;28;20452;-69
2024/03/04 06:44:17;;;;;;;43.70;24.40;;;8.40;99.90;;;;;;5059342;28;21052;-69
2024/03/04 06:46:46;;;;;;;46.23;22.70;;;8.40;99.90;;;;;;5067451;28;20479;-69
2024/03/04 06:49:14;;;;;;;49.43;23.33;;;8.40;99.90;;;;;;5067443;28;20463;-69
2024/03/04 06:51:42;;;;;;;51.37;25.20;;;8.40;99.90;;;;;;5067045;28;20440;-69
2024/03/04 06:54:11;;;;;;;48.30;24.30;;;8.50;99.90;;;;;;5067840;28;20447;-69
2024/03/04 06:56:39;;;;;;;50.17;26.27;;;8.40;99.90;;;;;;5060840;28;20473;-69
2024/03/04 06:59:08;;;;;;;49.43;25.90;;;8.40;99.90;;;;;;5064143;28;20472;-68
2024/03/04 07:01:36;;;;;;;46.13;23.53;;;8.40;99.90;;;;;;5046967;28;20452;-69
2024/03/04 07:04:04;;;;;;;50.67;26.07;;;8.40;99.90;;;;;;5047310;28;20443;-70
2024/03/04 07:06:32;;;;;;;49.23;24.27;;;8.30;99.90;;;;;;5047054;28;20499;-69
2024/03/04 07:09:00;;;;;;;53.00;27.13;;;8.40;99.90;;;;;;5047095;28;20466;-70
2024/03/04 07:11:28;;;;;;;51.83;26.13;;;8.40;99.90;;;;;;5052446;28;20460;-69
2024/03/04 07:13:56;;;;;;;57.20;26.90;;;8.40;99.90;;;;;;5047142;28;20887;-69
2024/03/04 07:16:25;;;;;;;54.27;27.90;;;8.40;99.90;;;;;;5047498;28;20834;-68
2024/03/04 07:18:53;;;;;;;46.93;25.30;;;8.40;99.90;;;;;;5046791;28;20472;-69
2024/03/04 07:21:21;;;;;;;55.03;26.97;;;8.40;99.90;;;;;;5046950;28;20502;-70
2024/03/04 07:23:49;;;;;;;47.30;24.93;;;8.40;99.90;;;;;;5046933;28;20885;-68
2024/03/04 07:26:20;;;;;;;53.20;27.87;;;8.40;99.90;;;;;;5051250;28;20925;-69
2024/03/04 07:28:48;;;;;;;57.10;26.90;;;8.40;99.90;;;;;;5050131;28;20554;-68
2024/03/04 07:31:16;;;;;;;58.73;27.77;;;8.40;99.90;;;;;;5046897;28;20455;-69
2024/03/04 07:33:46;;;;;;;57.27;27.53;;;8.40;99.90;;;;;;5047286;28;20475;-69
2024/03/04 07:36:15;;;;;;;50.97;27.43;;;8.40;99.90;;;;;;5046810;28;20934;-69
2024/03/04 07:38:44;;;;;;;49.50;25.87;;;8.40;99.90;;;;;;5046931;28;20514;-68
2024/03/04 07:41:13;;;;;;;61.47;28.57;;;8.40;99.90;;;;;;5046691;28;20843;-69
2024/03/04 07:43:42;;;;;;;58.97;27.40;;;8.50;99.90;;;;;;5049600;28;20982;-70
2024/03/04 07:46:10;;;;;;;54.33;26.63;;;8.50;99.90;;;;;;5060604;28;20480;-70
2024/03/04 07:48:38;;;;;;;51.93;26.20;;;8.50;99.90;;;;;;5067102;28;20467;-71
2024/03/04 07:51:07;;;;;;;58.07;28.73;;;8.50;99.90;;;;;;5066744;28;20451;-71
2024/03/04 07:53:35;;;;;;;58.20;28.97;;;8.50;99.90;;;;;;5066681;28;20450;-70
2024/03/04 07:56:04;;;;;;;57.27;28.37;;;8.50;99.90;;;;;;5067319;28;20443;-70
2024/03/04 07:58:32;;;;;;;53.77;27.70;;;8.50;99.90;;;;;;5072591;28;20485;-68
2024/03/04 08:01:00;;;;;;;57.17;27.10;;;8.50;99.90;;;;;;5073297;28;20443;-69
2024/03/04 08:03:28;;;;;;;64.80;31.07;;;8.50;99.90;;;;;;5073676;28;20454;-68
2024/03/04 08:05:56;;;;;;;57.20;26.53;;;8.50;99.90;;;;;;5073730;28;20501;-69
2024/03/04 08:08:25;;;;;;;56.60;25.80;;;8.60;99.90;;;;;;5073779;28;20555;-69
2024/03/04 08:10:53;;;;;;;58.60;28.87;;;8.60;99.90;;;;;;5070875;28;21013;-68
2024/03/04 08:13:21;;;;;;;55.23;27.67;;;8.60;99.90;;;;;;5051131;28;20448;-70
2024/03/04 08:15:49;;;;;;;50.93;25.63;;;8.60;99.90;;;;;;5051528;28;20540;-70
2024/03/04 08:18:17;;;;;;;60.50;29.20;;;8.60;99.90;;;;;;5051591;28;20472;-70
2024/03/04 08:20:45;;;;;;;59.73;28.40;;;8.60;99.90;;;;;;5051670;28;20577;-68
2024/03/04 08:23:13;;;;;;;62.53;29.77;;;8.60;99.90;;;;;;5051129;28;20458;-69
2024/03/04 08:25:42;;;;;;;58.80;27.67;;;8.60;99.90;;;;;;5052207;28;20980;-69
2024/03/04 08:28:11;;;;;;;58.20;26.57;;;8.50;99.90;;;;;;5066593;28;20470;-69
2024/03/04 08:30:54;;;;;;;57.70;29.80;;;8.50;99.90;;;;;;5072679;28;20721;-67
2024/03/04 08:33:22;;;;;;;60.93;27.47;;;8.60;99.90;;;;;;5072811;28;20511;-68
2024/03/04 08:35:50;;;;;;;57.10;32.07;;;8.60;99.90;;;;;;5072909;28;20549;-69
2024/03/04 08:38:18;;;;;;;55.90;26.57;;;8.70;99.90;;;;;;5072974;28;20468;-68
2024/03/04 08:40:48;;;;;;;55.63;26.73;;;8.70;99.90;;;;;;5072966;28;20447;-70
2024/03/04 08:43:16;;;;;;;59.20;29.20;;;8.70;99.90;;;;;;5072790;28;20538;-69
2024/03/04 08:45:44;;;;;;;58.67;29.47;;;8.70;99.90;;;;;;5073167;28;20526;-68
2024/03/04 08:48:12;;;;;;;64.87;28.40;;;8.70;99.90;;;;;;5072813;28;20491;-68
2024/03/04 08:50:40;;;;;;;65.97;29.97;;;8.60;99.90;;;;;;5072571;28;20994;-67
2024/03/04 08:53:08;;;;;;;63.10;29.77;;;8.60;99.90;;;;;;5072613;28;20451;-69
2024/03/04 08:55:36;;;;;;;59.30;29.37;;;8.60;99.90;;;;;;5073024;28;20512;-68
2024/03/04 08:58:05;;;;;;;60.40;30.20;;;8.60;99.90;;;;;;5072746;28;21023;-69
2024/03/04 09:00:33;;;;;;;61.97;30.17;;;8.60;99.90;;;;;;5058326;28;20542;-70
2024/03/04 09:03:01;;;;;;;55.47;26.80;;;8.60;99.90;;;;;;5052538;28;20836;-69
2024/03/04 09:05:29;;;;;;;64.90;28.97;;;8.60;99.90;;;;;;5053165;28;20448;-69
2024/03/04 09:08:02;;;;;;;60.13;29.03;;;8.60;99.90;;;;;;5052243;28;20515;-71
2024/03/04 09:10:30;;;;;;;62.90;30.40;;;8.70;99.90;;;;;;5049520;28;20606;-68
2024/03/04 09:12:59;;;;;;;56.90;30.33;;;8.80;99.90;;;;;;5049413;28;20479;-69
2024/03/04 09:15:28;;;;;;;56.40;29.00;;;8.90;99.90;;;;;;5055756;28;21185;-70
2024/03/04 09:17:56;;;;;;;57.33;28.93;;;8.90;99.90;;;;;;5049364;28;20609;-70
2024/03/04 09:20:24;;;;;;;61.53;29.13;;;8.90;99.90;;;;;;5049534;28;20448;-69
2024/03/04 09:22:53;;;;;;;56.80;29.50;;;8.80;99.90;;;;;;5049301;28;20483;-70
2024/03/04 09:25:21;;;;;;;61.80;28.30;;;8.90;99.90;;;;;;5049207;28;20495;-69
2024/03/04 09:27:49;;;;;;;63.83;29.73;;;8.90;99.90;;;;;;5049145;28;20492;-70
2024/03/04 09:30:16;;;;;;;58.53;27.63;;;9.00;99.90;;;;;;5050906;28;20461;-70
2024/03/04 09:32:46;;;;;;;66.53;30.43;;;8.90;99.90;;;;;;5061399;28;20471;-70
2024/03/04 09:35:15;;;;;;;56.23;31.30;;;9.00;99.90;;;;;;5049112;28;20867;-70
2024/03/04 09:37:44;;;;;;;70.70;30.50;;;9.00;99.90;;;;;;5049180;28;20491;-69
2024/03/04 09:40:13;;;;;;;62.30;30.07;;;9.10;99.90;;;;;;5048734;28;20449;-69
2024/03/04 09:42:47;;;;;;;67.43;33.50;;;9.20;99.90;;;;;;5048703;28;20451;-70
2024/03/04 09:45:15;;;;;;;68.67;30.07;;;9.40;99.90;;;;;;5048832;28;20574;-69
2024/03/04 09:47:47;;;;;;;63.73;29.70;;;9.40;99.90;;;;;;5055977;28;20491;-69
2024/03/04 09:50:17;;;;;;;64.60;30.60;;;9.50;99.90;;;;;;5048595;28;20448;-70
2024/03/04 09:52:47;;;;;;;63.70;31.30;;;9.60;99.90;;;;;;5048797;28;20446;-70
2024/03/04 09:55:15;;;;;;;68.70;32.00;;;9.70;99.90;;;;;;5048778;28;20438;-69
2024/03/04 09:57:43;;;;;;;61.53;30.10;;;9.80;99.90;;;;;;5056135;28;20476;-69
2024/03/04 10:00:14;;;;;;;68.40;31.07;;;9.90;99.90;;;;;;5069340;28;20537;-70
2024/03/04 10:02:42;;;;;;;55.80;29.70;;;9.80;99.90;;;;;;5069112;28;20454;-69
2024/03/04 10:05:13;;;;;;;56.93;28.13;;;9.70;99.90;;;;;;5069241;28;20955;-70
2024/03/04 10:07:41;;;;;;;55.80;28.30;;;9.70;99.90;;;;;;5069198;28;20569;-69
2024/03/04 10:10:12;;;;;;;58.57;29.60;;;9.80;99.90;;;;;;5069321;28;20451;-69
2024/03/04 10:12:40;;;;;;;67.53;28.43;;;9.80;99.90;;;;;;5069292;28;20556;-69
2024/03/04 10:15:10;;;;;;;64.40;29.17;;;9.80;99.90;;;;;;5069085;28;20444;-69
2024/03/04 10:17:38;;;;;;;55.37;27.60;;;9.90;99.90;;;;;;5068739;28;20496;-69
2024/03/04 10:20:08;;;;;;;56.23;27.17;;;10.10;99.90;;;;;;5068279;28;20450;-70
2024/03/04 10:22:39;;;;;;;65.77;29.20;;;9.90;99.90;;;;;;5068914;28;20482;-69
2024/03/04 10:25:09;;;;;;;67.07;28.63;;;9.80;99.90;;;;;;5069071;28;20465;-69
2024/03/04 10:27:40;;;;;;;56.27;26.70;;;9.90;99.90;;;;;;5068958;28;20488;-70
2024/03/04 10:30:13;;;;;;;57.93;28.90;;;9.80;99.90;;;;;;5068414;28;20980;-70
2024/03/04 10:32:46;;;;;;;56.07;26.87;;;9.80;99.90;;;;;;5068360;28;20887;-69
2024/03/04 10:35:15;;;;;;;55.17;26.93;;;9.80;99.90;;;;;;5068572;28;20463;-69
2024/03/04 10:37:45;;;;;;;62.33;31.50;;;9.80;99.90;;;;;;5068622;28;20500;-69
2024/03/04 10:40:14;;;;;;;56.40;28.50;;;9.80;99.90;;;;;;5068618;28;21025;-69
2024/03/04 10:42:45;;;;;;;58.33;29.97;;;9.80;99.90;;;;;;5069054;28;20459;-69
2024/03/04 10:45:14;;;;;;;60.50;29.17;;;9.90;99.90;;;;;;5069098;28;20522;-69
2024/03/04 10:47:44;;;;;;;64.67;30.53;;;9.90;99.90;;;;;;5068167;28;20497;-69
2024/03/04 10:50:14;;;;;;;55.10;29.50;;;9.90;99.90;;;;;;5068193;28;20460;-70
2024/03/04 10:52:44;;;;;;;58.40;29.10;;;9.90;99.90;;;;;;5067970;28;20449;-69
2024/03/04 10:55:13;;;;;;;61.93;28.90;;;9.90;99.90;;;;;;5068148;28;20458;-67
2024/03/04 10:57:44;;;;;;;56.13;28.47;;;9.90;99.90;;;;;;5071083;28;20531;-70
2024/03/04 11:00:25;;;;;;;60.80;28.87;;;9.90;99.90;;;;;;5048354;28;20502;-70
2024/03/04 11:03:04;;;;;;;61.40;29.10;;;9.90;99.90;;;;;;5047858;28;20457;-69
2024/03/04 11:05:33;;;;;;;59.30;28.37;;;9.90;99.90;;;;;;5050527;28;20536;-69
2024/03/04 11:08:05;;;;;;;64.23;29.40;;;9.70;99.90;;;;;;5067694;28;20567;-69
2024/03/04 11:10:37;;;;;;;58.93;30.63;;;9.80;99.90;;;;;;5068040;28;20543;-69
2024/03/04 11:13:15;;;;;;;61.63;29.20;;;9.80;99.90;;;;;;5067826;28;20477;-68
2024/03/04 11:15:59;;;;;;;54.87;27.23;;;9.90;99.90;;;;;;5067912;28;20870;-68
2024/03/04 11:18:40;;;;;;;62.20;27.97;;;10.00;99.90;;;;;;5068110;28;20810;-69
2024/03/04 11:21:08;;;;;;;60.27;30.10;;;10.10;99.90;;;;;;5067124;28;20469;-66
2024/03/04 11:23:38;;;;;;;63.93;30.40;;;10.10;99.90;;;;;;5067982;28;21283;-69
2024/03/04 11:26:09;;;;;;;58.70;30.90;;;10.10;99.90;;;;;;5067432;28;20888;-69
2024/03/04 11:28:38;;;;;;;64.07;29.93;;;10.00;99.90;;;;;;5067596;28;20614;-68
2024/03/04 11:31:10;;;;;;;61.60;28.07;;;10.00;99.90;;;;;;5067018;28;20453;-70
2024/03/04 11:33:41;;;;;;;60.30;28.37;;;10.00;99.90;;;;;;5067637;28;20538;-69
2024/03/04 11:36:10;;;;;;;63.07;28.80;;;9.90;99.90;;;;;;5067624;28;20448;-69
2024/03/04 11:38:44;;;;;;;62.40;28.50;;;9.90;99.90;;;;;;5061149;28;20477;-69
2024/03/04 11:41:13;;;;;;;62.23;28.50;;;9.90;99.90;;;;;;5047201;28;20458;-69
2024/03/04 11:43:50;;;;;;;57.20;27.30;;;9.90;99.90;;;;;;5047900;28;20529;-68
2024/03/04 11:46:19;;;;;;;62.33;26.63;;;9.90;99.90;;;;;;5047579;28;20847;-68
2024/03/04 11:48:47;;;;;;;52.20;27.67;;;10.00;99.90;;;;;;5047433;28;20487;-70
2024/03/04 11:51:37;;;;;;;52.80;27.37;;;10.00;99.90;;;;;;5047315;28;20516;-69
2024/03/04 11:54:07;;;;;;;58.87;27.40;;;9.80;99.90;;;;;;5056854;28;20453;-69
2024/03/04 11:56:37;;;;;;;57.97;27.20;;;9.90;99.90;;;;;;5047487;28;20465;-69
2024/03/04 11:59:12;;;;;;;53.27;27.60;;;10.00;99.90;;;;;;5047177;28;20561;-68
2024/03/04 12:01:40;;;;;;;57.63;28.83;;;10.20;99.90;;;;;;5046936;28;20447;-69
2024/03/04 12:04:08;;;;;;;52.60;25.80;;;10.20;99.90;;;;;;5046996;28;20461;-70
2024/03/04 12:06:36;;;;;;;56.43;27.73;;;10.40;99.90;;;;;;5047518;28;20451;-69
2024/03/04 12:09:06;;;;;;;48.10;24.47;;;10.40;99.90;;;;;;5051912;28;20492;-68
2024/03/04 12:11:54;;;;;;;49.90;25.03;;;10.50;99.90;;;;;;5067036;28;20450;-69
2024/03/04 12:14:22;;;;;;;50.80;24.20;;;10.60;99.90;;;;;;5067239;28;20937;-69
2024/03/04 12:16:50;;;;;;;48.30;24.60;;;10.70;99.90;;;;;;5067231;28;20459;-69
2024/03/04 12:19:18;;;;;;;49.83;24.83;;;10.80;99.90;;;;;;5066849;28;20468;-69
2024/03/04 12:21:48;;;;;;;47.23;23.53;;;11.00;99.90;;;;;;5067032;28;20451;-70
2024/03/04 12:24:19;;;;;;;48.90;25.90;;;11.00;99.90;;;;;;5067302;28;20472;-69
2024/03/04 12:26:50;;;;;;;48.57;25.67;;;11.00;99.90;;;;;;5062889;28;20835;-69
2024/03/04 12:29:22;;;;;;;50.13;24.30;;;10.80;99.90;;;;;;5066750;28;20575;-69
2024/03/04 12:31:53;;;;;;;44.97;22.57;;;10.80;99.90;;;;;;5066770;28;20566;-69
2024/03/04 12:34:21;;;;;;;43.83;23.70;;;10.70;99.90;;;;;;5064543;28;20449;-69
2024/03/04 12:36:50;;;;;;;43.80;24.60;;;10.60;99.90;;;;;;5057012;28;20461;-69
2024/03/04 12:39:20;;;;;;;45.37;24.90;;;10.50;99.90;;;;;;5046147;28;20841;-70
2024/03/04 12:41:49;;;;;;;44.87;23.17;;;10.40;99.90;;;;;;5060280;28;20497;-71
2024/03/04 12:44:19;;;;;;;47.70;24.73;;;10.10;99.90;;;;;;5068971;28;20453;-69